KRAP

Rapid City Regional Airport

Rapid City, South Dakota, USA
METAR KRAP 150052Z 16005KT 10SM CLR 19/14 A3003 RMK AO2 SLP154 T01890144
Observed Flight Rules
Aug-15 @ 00:52 UTC (15 minutes ago) Visual Flight Rules
Wind Visibility Clouds
160° at 5 knots 10 miles
  • Clear skies
Temperatures Readings
Current 19°C / 66°F
Dewpoint 14°C / 57°F
Humidity 73%
Altimeter 30.03" Hg
Pressure 1015.4 hPa
Elevation 965
METAR KRAP 150052Z 16005KT 10SM CLR 19/14 A3003 RMK AO2 SLP154 T01890144
Observed Flight Rules
Aug-15 @ 00:52 UTC
(15 minutes ago)
VFR
Wind Visibility
160° at 5 knots 10 miles
Clouds
  • Clear skies
Temperature Dewpoint
19°C / 66°F 14°C / 57°F
Humidity Altimeter Pressure
73% 30.03" Hg 1015.4 hPa